Port Simpson, Canada
Current Conditions -  °F | °C
As of 9:00 AM on Sunday 21 Dec 2014 (Local Time) from CYPR Reporting Station
Broken Clouds Broken Clouds  
Wind Chill: 37°   Ceiling: 5500
Heat Index: 43°   Visibility: 9mi
Dew Point: 41°   Wind: 9mph
Humidity: 93%   Direction: 140°SE
Pressure: 29.48"   Gusts: NA
Location:  54.55°N, 130.42°W
Report Text: CYPR 211700Z AUTO 14008KT 9SM BKN055 06/05 A2948 RMK SLP984
Loading
Personal Weather Stations






























Interactive Weather Map New forecast layout! Learn more

10-Day Weather Forecast

Advertisements
Track Severe Weather on mobile